Time;durP1;ratioP1;P1;durP2;ratioP2;P2;SDS_P1;SDS_P2;PMS_P1;PMS_P2;Temp;Humidity;BMP_temperature;BMP_pressure;BME280_temperature;BME280_humidity;BME280_pressure;Samples;Min_cycle;Max_cycle;Signal;HPM_P1;HPM_P2
2022/08/23 00:00:11;;;;;;;12.77;7.57;;;;;;;16.67;90.74;101236.84;5044162;28;20106;-87
2022/08/23 00:02:36;;;;;;;14.07;7.77;;;;;;;16.57;90.88;101226.53;5043400;28;20098;-87
2022/08/23 00:05:02;;;;;;;14.13;7.97;;;;;;;16.59;91.42;101237.25;5043019;28;20048;-85
2022/08/23 00:07:28;;;;;;;12.20;8.10;;;;;;;16.50;91.56;101234.06;5044809;28;20552;-86
2022/08/23 00:09:53;;;;;;;10.27;7.80;;;;;;;16.42;91.95;101238.00;5045704;28;20585;-86
2022/08/23 00:12:22;;;;;;;10.67;7.90;;;;;;;16.48;92.58;101233.47;5043438;28;20121;-85
2022/08/23 00:14:51;;;;;;;11.20;7.97;;;;;;;16.47;92.94;101240.00;5043186;28;20048;-86
2022/08/23 00:17:16;;;;;;;13.17;8.53;;;;;;;16.37;92.91;101227.81;5044030;28;20036;-86
2022/08/23 00:19:43;;;;;;;14.40;8.77;;;;;;;16.30;92.63;101227.09;5042569;28;20048;-86
2022/08/23 00:22:09;;;;;;;12.40;8.70;;;;;;;16.30;93.08;101224.34;5043873;28;20056;-86
2022/08/23 00:24:36;;;;;;;12.83;8.70;;;;;;;16.28;92.85;101226.50;5041984;28;20049;-87
2022/08/23 00:27:06;;;;;;;14.43;9.10;;;;;;;16.22;93.19;101221.97;5043339;28;20099;-86
2022/08/23 00:29:41;;;;;;;13.57;9.30;;;;;;;16.26;93.37;101225.09;5042087;28;20048;-86
2022/08/23 00:32:10;;;;;;;19.20;8.37;;;;;;;16.28;92.93;101220.19;5044191;28;20705;-85
2022/08/23 00:34:36;;;;;;;15.57;8.63;;;;;;;16.26;93.11;101227.81;5041811;28;20060;-85
2022/08/23 00:37:03;;;;;;;10.70;8.13;;;;;;;16.12;93.54;101214.41;5043071;28;20148;-86
2022/08/23 00:39:29;;;;;;;13.50;8.23;;;;;;;16.17;94.08;101224.63;5042394;28;20036;-86
2022/08/23 00:47:38;;;;;;;12.00;8.10;;;;;;;16.12;94.38;101224.50;5011581;28;20506;-84
2022/08/23 00:47:40;;;;;;;12.60;8.30;;;;;;;16.07;94.06;101222.47;5042873;28;20055;-86
2022/08/23 00:50:14;;;;;;;11.40;7.93;;;;;;;16.03;93.55;101218.56;5042677;28;20039;-85
2022/08/23 00:53:00;;;;;;;;;;;;;;;16.23;91.26;101225.56;5042744;28;20041;-84
2022/08/23 00:55:26;;;;;;;14.20;9.73;;;;;;;15.95;93.24;101216.19;5040799;28;20469;-86
2022/08/23 00:57:51;;;;;;;12.83;10.00;;;;;;;15.94;93.81;101226.31;5042618;28;20250;-86
2022/08/23 01:00:17;;;;;;;12.83;9.83;;;;;;;15.94;94.05;101222.72;5042109;28;20497;-86
2022/08/23 01:02:47;;;;;;;12.33;9.53;;;;;;;15.94;93.80;101223.56;5042005;28;20047;-87
2022/08/23 01:05:13;;;;;;;14.77;10.03;;;;;;;15.84;94.46;101226.91;5040628;28;20028;-86
2022/08/23 01:07:59;;;;;;;13.40;9.40;;;;;;;15.84;94.72;101226.06;5042391;28;20102;-86
2022/08/23 01:10:55;;;;;;;11.10;9.60;;;;;;;15.90;94.99;101238.78;5042211;28;20028;-85
2022/08/23 01:13:44;;;;;;;15.43;11.57;;;;;;;15.89;95.36;101241.75;5041149;28;20060;-86
2022/08/23 01:16:18;;;;;;;15.33;11.33;;;;;;;15.85;95.64;101231.28;5041638;28;20068;-87
2022/08/23 01:18:45;;;;;;;14.52;10.73;;;;;;;15.85;95.35;101225.81;5043656;28;20128;-84
2022/08/23 01:21:15;;;;;;;13.70;10.83;;;;;;;15.96;95.08;101221.41;5041590;28;20455;-86
2022/08/23 01:23:57;;;;;;;15.07;10.33;;;;;;;15.84;95.65;101226.06;5042373;28;20040;-86
2022/08/23 01:26:24;;;;;;;13.37;10.00;;;;;;;15.78;95.30;101227.00;5041955;28;20558;-86
2022/08/23 01:28:51;;;;;;;14.03;9.50;;;;;;;15.76;95.43;101240.03;5042234;28;20045;-86
2022/08/23 01:31:18;;;;;;;14.97;10.60;;;;;;;15.63;95.75;101231.00;5042126;28;20230;-85
2022/08/23 01:33:47;;;;;;;13.07;9.67;;;;;;;15.74;96.06;101236.75;5042884;28;20033;-86
2022/08/23 01:36:14;;;;;;;11.30;9.23;;;;;;;15.72;95.96;101230.66;5041472;28;20477;-86
2022/08/23 01:38:40;;;;;;;12.77;9.87;;;;;;;15.69;95.84;101237.44;5041730;28;20454;-84
2022/08/23 01:41:06;;;;;;;12.73;9.70;;;;;;;15.66;96.22;101226.97;5040011;28;20131;-85
2022/08/23 01:43:32;;;;;;;13.07;10.10;;;;;;;15.71;95.84;101235.31;5042232;28;20045;-86
2022/08/23 01:46:05;;;;;;;14.30;11.03;;;;;;;15.62;95.96;101220.34;5041973;28;20043;-86
2022/08/23 01:48:30;;;;;;;11.73;10.27;;;;;;;15.61;96.18;101235.91;5042267;28;20159;-86
2022/08/23 01:50:55;;;;;;;15.27;11.43;;;;;;;15.64;96.81;101235.41;5041922;28;20045;-86
2022/08/23 01:53:21;;;;;;;15.43;11.80;;;;;;;15.59;97.45;101227.09;5041983;28;20045;-86
2022/08/23 01:55:47;;;;;;;15.57;11.70;;;;;;;15.58;97.09;101228.16;5041222;28;20600;-86
2022/08/23 01:58:12;;;;;;;17.27;12.17;;;;;;;15.60;97.26;101227.91;5041364;28;20041;-87
2022/08/23 02:00:43;;;;;;;14.73;11.67;;;;;;;15.50;96.86;101226.63;5041737;28;20409;-87
2022/08/23 02:03:11;;;;;;;14.90;10.73;;;;;;;15.58;96.36;101230.06;5039738;28;20043;-87
2022/08/23 02:05:38;;;;;;;14.07;11.40;;;;;;;15.52;96.09;101226.38;5040674;28;20032;-86
2022/08/23 02:10:49;;;;;;;14.30;11.67;;;;;;;15.48;96.17;101230.66;5042241;28;20043;-86
2022/08/23 02:13:16;;;;;;;16.37;11.80;;;;;;;15.51;96.50;101224.72;5041792;28;20037;-86
2022/08/23 02:15:43;;;;;;;13.03;10.80;;;;;;;15.49;96.45;101232.28;5041040;28;20516;-86
2022/08/23 02:18:09;;;;;;;13.03;11.17;;;;;;;15.47;96.29;101231.72;5041583;28;20503;-86
2022/08/23 02:20:35;;;;;;;16.67;12.30;;;;;;;15.42;96.75;101220.66;5041260;28;20032;-85
2022/08/23 02:23:01;;;;;;;14.70;11.97;;;;;;;15.43;97.08;101225.06;5041263;28;20036;-85
2022/08/23 02:25:27;;;;;;;14.97;11.60;;;;;;;15.42;97.02;101220.66;5040460;28;20075;-86
2022/08/23 02:27:52;;;;;;;14.90;12.50;;;;;;;15.38;97.93;101228.50;5041604;28;20276;-84
2022/08/23 02:30:18;;;;;;;19.27;13.60;;;;;;;15.30;98.02;101226.09;5041406;28;20192;-86
2022/08/23 02:32:43;;;;;;;18.90;14.40;;;;;;;15.25;98.09;101229.53;5041240;28;20075;-84
2022/08/23 02:35:09;;;;;;;18.63;15.07;;;;;;;15.33;97.90;101233.84;5040821;28;20041;-85
2022/08/23 02:37:34;;;;;;;19.90;15.13;;;;;;;15.32;97.69;101238.44;5041752;28;20040;-85
2022/08/23 02:40:00;;;;;;;21.40;14.57;;;;;;;15.37;98.01;101237.75;5039865;28;21039;-86
2022/08/23 02:42:25;;;;;;;20.40;14.60;;;;;;;15.37;97.92;101240.47;5042159;28;20040;-85
2022/08/23 02:44:51;;;;;;;18.30;14.23;;;;;;;15.42;97.13;101250.69;5041419;28;20045;-85
2022/08/23 02:47:17;;;;;;;19.63;15.00;;;;;;;15.46;97.53;101247.28;5040830;28;20052;-86
2022/08/23 02:49:42;;;;;;;18.60;14.50;;;;;;;15.53;96.48;101256.19;5041171;28;20037;-86
2022/08/23 02:52:08;;;;;;;18.27;15.10;;;;;;;15.49;96.32;101259.59;5041111;28;20053;-86
2022/08/23 02:54:34;;;;;;;19.43;15.70;;;;;;;15.55;95.83;101261.41;5041097;28;20136;-84
2022/08/23 02:57:00;;;;;;;20.77;15.27;;;;;;;15.61;94.67;101255.03;5040767;28;20552;-85
2022/08/23 02:59:25;;;;;;;18.70;14.87;;;;;;;15.66;95.45;101265.22;5041476;28;20102;-86
2022/08/23 03:01:51;;;;;;;18.90;14.60;;;;;;;15.65;95.92;101256.22;5041618;28;20058;-85
2022/08/23 03:04:16;;;;;;;18.70;13.87;;;;;;;15.70;95.18;101255.50;5008500;28;20114;-86
2022/08/23 03:06:42;;;;;;;18.17;14.60;;;;;;;15.73;95.72;101260.47;5040599;28;20066;-84
2022/08/23 03:09:07;;;;;;;16.53;13.80;;;;;;;15.73;95.37;101254.19;5040923;28;20063;-86
2022/08/23 03:11:34;;;;;;;18.07;14.43;;;;;;;15.70;95.49;101259.03;5042878;28;20029;-86
2022/08/23 03:14:00;;;;;;;18.77;13.90;;;;;;;15.66;96.38;101263.31;5040772;28;20024;-86
2022/08/23 03:16:25;;;;;;;17.07;14.13;;;;;;;15.58;96.54;101263.66;5040975;28;20057;-86
2022/08/23 03:18:51;;;;;;;20.00;14.10;;;;;;;15.61;95.67;101267.81;5025456;28;21687;-85
2022/08/23 03:21:18;;;;;;;20.67;14.80;;;;;;;15.63;96.31;101277.44;5039517;28;20049;-85
2022/08/23 03:23:44;;;;;;;21.53;15.47;;;;;;;15.63;97.11;101273.91;5041316;28;20032;-86
2022/08/23 03:26:11;;;;;;;20.40;15.67;;;;;;;15.65;96.71;101275.34;5042730;28;20530;-86
2022/08/23 03:28:38;;;;;;;19.57;14.63;;;;;;;15.71;95.85;101281.75;5025867;28;20051;-86
2022/08/23 03:31:05;;;;;;;17.73;13.80;;;;;;;15.73;95.79;101286.97;5046366;28;20224;-86
2022/08/23 03:34:07;;;;;;;18.43;13.70;;;;;;;15.76;95.82;101278.28;5045319;28;20029;-85
2022/08/23 03:36:33;;;;;;;20.57;14.77;;;;;;;15.73;96.27;101276.88;5044137;28;20294;-86
2022/08/23 03:38:59;;;;;;;20.43;14.27;;;;;;;15.75;96.41;101282.09;5045655;28;20040;-85
2022/08/23 03:41:25;;;;;;;18.83;14.60;;;;;;;15.70;96.43;101272.69;5044861;28;20693;-86
2022/08/23 03:43:51;;;;;;;18.40;14.83;;;;;;;15.69;97.18;101268.31;5059866;28;20041;-87
2022/08/23 03:46:23;;;;;;;20.03;14.43;;;;;;;15.71;97.45;101279.00;5045882;28;20048;-87
2022/08/23 03:48:54;;;;;;;16.97;14.03;;;;;;;15.79;98.09;101286.00;5043789;28;20045;-84
2022/08/23 03:51:21;;;;;;;19.17;14.80;;;;;;;15.82;97.06;101285.59;5043870;28;20068;-86
2022/08/23 03:53:48;;;;;;;18.23;14.50;;;;;;;15.85;98.10;101287.84;5044938;28;20682;-86
2022/08/23 03:56:35;;;;;;;17.47;14.50;;;;;;;15.92;98.07;101288.56;5059470;28;20044;-86
2022/08/23 03:59:05;;;;;;;17.50;14.00;;;;;;;15.82;97.57;101285.59;5045806;28;20036;-86
2022/08/23 04:01:30;;;;;;;21.17;15.37;;;;;;;15.89;97.25;101289.03;5043440;28;20119;-86
2022/08/23 04:03:58;;;;;;;20.07;15.37;;;;;;;15.92;96.71;101290.47;5043458;28;21400;-87
2022/08/23 04:06:25;;;;;;;17.90;14.70;;;;;;;15.89;96.88;101278.09;5044338;28;20519;-84
2022/08/23 04:08:53;;;;;;;19.07;14.93;;;;;;;15.88;97.28;101278.34;5030051;28;20033;-87
2022/08/23 04:11:19;;;;;;;19.87;14.60;;;;;;;15.95;97.04;101285.38;5044214;28;20043;-87
2022/08/23 04:13:48;;;;;;;17.20;14.97;;;;;;;15.89;98.13;101286.31;5044588;28;20044;-86
2022/08/23 04:16:13;;;;;;;19.13;15.33;;;;;;;15.95;98.26;101282.63;5043942;28;20056;-87
2022/08/23 04:18:39;;;;;;;19.47;15.20;;;;;;;15.95;98.42;101292.72;5042174;28;20036;-87
2022/08/23 04:21:09;;;;;;;18.23;15.33;;;;;;;15.96;98.21;101295.22;5059252;28;20037;-86
2022/08/23 04:23:49;;;;;;;20.50;15.37;;;;;;;16.01;97.55;101295.34;5044117;28;20447;-86
2022/08/23 04:26:15;;;;;;;21.57;15.17;;;;;;;15.97;96.53;101302.34;5042848;28;20032;-85
2022/08/23 04:28:40;;;;;;;18.27;15.10;;;;;;;15.95;96.39;101296.28;5044321;28;20063;-86
2022/08/23 04:31:06;;;;;;;20.83;15.13;;;;;;;15.98;96.91;101293.09;5044080;28;20452;-85
2022/08/23 04:33:33;;;;;;;19.00;15.67;;;;;;;16.00;97.08;101290.09;5044350;28;20037;-85
2022/08/23 04:36:00;;;;;;;19.13;15.63;;;;;;;15.96;97.77;101291.66;5040435;28;20087;-85
2022/08/23 04:38:26;;;;;;;20.33;15.10;;;;;;;16.02;97.39;101297.00;5043744;28;20043;-86
2022/08/23 04:43:36;;;;;;;18.17;15.33;;;;;;;15.96;98.48;101302.59;5044640;28;20103;-87
2022/08/23 04:46:01;;;;;;;19.70;15.27;;;;;;;15.95;99.09;101296.28;5042812;28;20598;-86
2022/08/23 04:48:27;;;;;;;19.30;15.50;;;;;;;15.95;98.60;101298.19;5043182;28;20040;-86
2022/08/23 04:50:52;;;;;;;18.93;15.17;;;;;;;16.02;98.88;101302.47;5044080;28;20048;-85
2022/08/23 04:53:18;;;;;;;21.33;15.77;;;;;;;16.02;98.32;101302.47;5043982;28;20127;-86
2022/08/23 04:55:43;;;;;;;17.40;14.70;;;;;;;16.00;98.73;101310.06;5043565;28;20479;-85
2022/08/23 04:58:09;;;;;;;19.37;15.10;;;;;;;16.04;98.61;101311.25;5043188;28;20040;-86
2022/08/23 05:00:34;;;;;;;19.50;15.30;;;;;;;16.06;98.48;101307.47;5043750;28;20040;-85
2022/08/23 05:02:59;;;;;;;20.83;16.27;;;;;;;16.07;99.14;101306.41;5042770;28;20082;-86
2022/08/23 05:05:26;;;;;;;19.93;15.80;;;;;;;16.07;99.21;101312.69;5043052;28;20045;-86
2022/08/23 05:07:52;;;;;;;20.37;16.27;;;;;;;16.02;99.45;101313.41;5043523;28;20568;-86
2022/08/23 05:10:18;;;;;;;21.97;16.70;;;;;;;16.01;98.51;101310.91;5043075;28;20498;-86
2022/08/23 05:12:44;;;;;;;22.37;16.67;;;;;;;16.01;98.16;101317.19;5043647;28;20056;-86
2022/08/23 05:15:28;;;;;;;21.43;16.40;;;;;;;16.10;98.30;101316.84;5040836;28;20461;-86
2022/08/23 05:17:55;;;;;;;20.75;16.17;;;;;;;16.21;98.41;101316.03;5023128;28;20049;-85
2022/08/23 05:20:23;;;;;;;22.10;16.80;;;;;;;16.22;98.71;101312.22;5023334;28;20045;-86
2022/08/23 05:22:49;;;;;;;21.50;17.00;;;;;;;16.30;99.69;101311.03;5022354;28;20087;-85
2022/08/23 05:25:14;;;;;;;20.80;16.90;;;;;;;16.35;100.00;101317.44;5022597;28;20111;-85
2022/08/23 05:27:40;;;;;;;21.23;17.17;;;;;;;16.47;100.00;101308.38;5022356;28;20041;-86
2022/08/23 05:30:06;;;;;;;19.03;16.00;;;;;;;16.46;100.00;101314.94;5005263;28;20096;-87
2022/08/23 05:32:32;;;;;;;20.53;17.10;;;;;;;16.49;100.00;101311.72;5022321;28;20200;-86
2022/08/23 05:34:58;;;;;;;24.20;17.87;;;;;;;16.53;99.93;101313.72;5003850;28;20528;-84
2022/08/23 05:37:23;;;;;;;21.53;17.30;;;;;;;16.53;99.44;101312.91;5021811;28;20065;-84
2022/08/23 05:39:48;;;;;;;21.87;16.73;;;;;;;16.59;99.87;101325.63;5023237;28;20650;-84
2022/08/23 05:42:15;;;;;;;21.97;17.27;;;;;;;16.60;99.05;101338.22;5003598;28;20037;-85
2022/08/23 05:44:41;;;;;;;22.13;17.67;;;;;;;16.64;98.98;101335.84;5022190;28;20033;-85
2022/08/23 05:47:10;;;;;;;23.73;18.53;;;;;;;16.66;97.81;101341.91;5020226;28;20046;-83
2022/08/23 05:49:35;;;;;;;22.00;17.30;;;;;;;16.64;98.54;101353.06;5020562;28;20129;-83
2022/08/23 05:52:06;;;;;;;22.07;18.67;;;;;;;16.74;98.89;101355.22;5003011;28;20078;-83
2022/08/23 05:54:32;;;;;;;22.90;18.83;;;;;;;16.82;98.17;101360.31;5022992;28;20493;-82
2022/08/23 05:56:57;;;;;;;22.63;18.47;;;;;;;16.90;98.00;101358.31;4987561;28;20048;-83
2022/08/23 05:59:23;;;;;;;22.20;19.47;;;;;;;16.94;97.99;101357.56;5022774;28;20045;-82
2022/08/23 06:01:48;;;;;;;23.47;19.73;;;;;;;16.93;96.22;101364.13;5020671;28;20112;-82
2022/08/23 06:04:14;;;;;;;22.63;19.40;;;;;;;17.06;96.85;101363.00;4988240;28;20040;-83
2022/08/23 06:06:41;;;;;;;25.70;19.93;;;;;;;17.11;95.46;101351.31;5020288;28;20042;-84
2022/08/23 06:09:09;;;;;;;24.97;18.57;;;;;;;17.26;95.29;101365.34;5021714;28;20041;-83
2022/08/23 06:11:35;;;;;;;25.07;17.77;;;;;;;17.34;93.98;101362.22;5021538;28;20493;-83
2022/08/23 06:14:03;;;;;;;22.60;18.20;;;;;;;17.44;94.55;101367.03;5022030;28;20035;-83
2022/08/23 06:16:41;;;;;;;23.53;19.70;;;;;;;17.59;96.35;101368.41;5030343;28;20402;-83
2022/08/23 06:19:07;;;;;;;23.43;18.57;;;;;;;17.67;94.47;101368.00;5041378;28;20040;-82
2022/08/23 06:21:34;;;;;;;20.90;17.73;;;;;;;17.76;92.93;101371.16;5040874;28;20409;-82
2022/08/23 06:24:00;;;;;;;21.43;17.07;;;;;;;17.86;91.14;101371.34;5041264;28;20726;-83
2022/08/23 06:26:30;;;;;;;23.27;18.00;;;;;;;17.95;90.44;101369.91;5041942;28;20480;-83
2022/08/23 06:28:57;;;;;;;25.80;18.60;;;;;;;18.04;89.85;101368.38;5040383;28;20037;-83
2022/08/23 06:34:12;;;;;;;23.05;18.05;;;;;;;18.29;87.54;101369.03;5041687;28;20059;-83
2022/08/23 06:36:38;;;;;;;21.90;18.27;;;;;;;18.39;87.97;101361.81;5043366;28;20583;-84
2022/08/23 06:39:08;;;;;;;21.40;17.63;;;;;;;18.49;86.06;101365.78;5041206;28;20041;-83
2022/08/23 06:41:34;;;;;;;23.80;18.53;;;;;;;18.63;85.69;101369.84;5041670;28;20163;-83
2022/08/23 06:43:59;;;;;;;21.50;18.47;;;;;;;18.71;84.08;101369.41;5041252;28;20040;-83
2022/08/23 06:46:27;;;;;;;23.40;17.75;;;;;;;18.83;82.60;101371.19;5041592;28;20529;-83
2022/08/23 06:48:54;;;;;;;22.80;18.08;;;;;;;18.92;83.10;101372.44;5041445;28;20787;-83
2022/08/23 06:51:30;;;;;;;22.60;17.65;;;;;;;19.03;81.41;101374.22;5041653;28;20033;-83
2022/08/23 06:53:58;;;;;;;21.63;18.35;;;;;;;19.25;81.20;101372.56;5040799;28;20033;-83
2022/08/23 06:56:25;;;;;;;21.95;17.67;;;;;;;19.35;79.01;101376.25;5041346;28;20465;-83
2022/08/23 06:58:51;;;;;;;23.30;18.13;;;;;;;19.47;77.63;101372.50;5040938;28;20041;-84
2022/08/23 07:01:29;;;;;;;24.35;17.60;;;;;;;19.59;76.91;101373.19;5040769;28;20472;-83
2022/08/23 07:04:05;;;;;;;22.48;16.65;;;;;;;19.72;74.30;101371.94;5056471;28;20060;-84
2022/08/23 07:06:31;;;;;;;24.05;17.50;;;;;;;19.86;74.23;101375.13;5040491;28;20140;-84
2022/08/23 07:09:26;;;;;;;23.90;17.75;;;;;;;20.02;75.00;101373.34;5040573;28;20094;-83
2022/08/23 07:11:52;;;;;;;22.30;16.42;;;;;;;20.16;73.64;101371.78;5040641;28;20522;-83
2022/08/23 07:14:20;;;;;;;20.73;14.25;;;;;;;20.29;71.93;101375.16;5040559;28;20082;-83
2022/08/23 07:16:52;;;;;;;21.88;15.13;;;;;;;20.41;72.54;101384.06;5039623;28;20057;-83
2022/08/23 07:19:23;;;;;;;20.88;15.05;;;;;;;20.56;71.57;101377.81;5040614;28;20033;-83
2022/08/23 07:21:49;;;;;;;20.40;14.93;;;;;;;20.67;70.97;101384.22;5040873;28;20052;-84
2022/08/23 07:24:16;;;;;;;23.88;15.90;;;;;;;20.84;69.88;101375.81;5040913;28;20033;-84
2022/08/23 07:26:44;;;;;;;22.55;14.27;;;;;;;21.02;69.87;101389.09;5040714;28;20044;-82
2022/08/23 07:29:10;;;;;;;22.13;14.18;;;;;;;21.12;69.57;101381.97;5040252;28;20036;-82
2022/08/23 07:31:41;;;;;;;21.95;14.93;;;;;;;21.32;67.17;101382.03;5039779;28;20052;-83
2022/08/23 07:34:07;;;;;;;22.85;16.88;;;;;;;21.41;68.13;101383.16;5039850;28;20140;-83
2022/08/23 07:36:34;;;;;;;24.33;17.77;;;;;;;21.55;67.50;101389.00;5040925;28;20543;-82
2022/08/23 07:39:00;;;;;;;25.73;18.88;;;;;;;21.67;65.91;101387.94;5039213;28;20033;-85
2022/08/23 07:41:30;;;;;;;24.52;17.95;;;;;;;21.74;66.74;101394.84;5040704;28;20086;-82
2022/08/23 07:43:58;;;;;;;19.02;13.60;;;;;;;21.85;62.01;101398.44;5040095;28;20056;-82
2022/08/23 07:46:24;;;;;;;23.00;13.25;;;;;;;22.02;64.23;101402.88;5040683;28;20037;-82
2022/08/23 07:48:51;;;;;;;19.33;12.25;;;;;;;22.06;62.16;101402.03;5039554;28;20052;-82
2022/08/23 07:51:17;;;;;;;21.83;13.75;;;;;;;22.06;61.50;101404.81;5041317;28;20029;-83
2022/08/23 07:53:44;;;;;;;20.00;14.50;;;;;;;22.21;62.74;101403.16;5040396;28;20277;-83
2022/08/23 07:56:11;;;;;;;22.27;14.60;;;;;;;22.32;62.29;101407.56;5039860;28;20036;-82
2022/08/23 07:58:56;;;;;;;18.30;12.18;;;;;;;22.54;62.90;101409.22;5039709;28;20496;-82
2022/08/23 08:01:23;;;;;;;;;;;;;;;22.72;64.67;101408.59;5040548;28;20273;-82
2022/08/23 08:03:53;;;;;;;20.60;13.93;;;;;;;22.72;61.70;101419.66;5040881;28;19963;-82
2022/08/23 08:06:22;;;;;;;21.23;14.05;;;;;;;22.90;62.29;101417.38;5040157;28;20040;-82
2022/08/23 08:08:49;;;;;;;19.13;13.63;;;;;;;22.94;59.67;101426.78;5039913;28;20098;-83
2022/08/23 08:11:19;;;;;;;19.73;14.00;;;;;;;23.10;61.01;101411.81;5041739;28;20546;-82
2022/08/23 08:13:46;;;;;;;18.92;13.00;;;;;;;23.20;59.81;101415.66;5059681;28;20396;-82
2022/08/23 08:16:27;;;;;;;20.25;13.57;;;;;;;23.28;60.75;101417.81;5041829;28;20060;-82
2022/08/23 08:18:56;;;;;;;20.20;12.55;;;;;;;23.54;59.80;101425.97;5044100;28;20814;-83
2022/08/23 08:21:22;;;;;;;19.58;12.65;;;;;;;23.60;58.76;101428.44;5044904;28;20049;-82
2022/08/23 08:23:47;;;;;;;18.70;11.50;;;;;;;23.72;57.46;101430.84;5043708;28;20637;-82
2022/08/23 08:26:13;;;;;;;18.67;11.90;;;;;;;23.90;58.19;101426.59;5044471;28;20048;-83
2022/08/23 08:29:04;;;;;;;20.63;12.25;;;;;;;24.16;59.15;101422.81;5058467;28;20114;-82
2022/08/23 08:31:29;;;;;;;17.60;10.73;;;;;;;24.39;56.15;101429.53;5042762;28;20025;-82
2022/08/23 08:33:55;;;;;;;20.30;11.95;;;;;;;24.50;56.16;101431.06;5044133;28;20662;-81
2022/08/23 08:36:37;;;;;;;18.88;12.48;;;;;;;24.93;57.42;101430.41;5043655;28;20041;-82
2022/08/23 08:39:05;;;;;;;18.65;12.52;;;;;;;24.81;54.00;101429.97;5043745;28;20036;-83
2022/08/23 08:41:34;;;;;;;19.27;11.75;;;;;;;24.91;53.46;101429.84;5044352;28;20063;-83
2022/08/23 08:44:21;;;;;;;16.33;11.23;;;;;;;25.51;53.60;101434.13;5043612;28;20083;-83
2022/08/23 08:46:50;;;;;;;18.83;10.98;;;;;;;25.59;55.34;101433.44;5043556;28;20500;-83
2022/08/23 08:49:31;;;;;;;22.10;12.23;;;;;;;25.93;53.13;101437.94;5044298;28;20032;-83
2022/08/23 08:52:32;;;;;;;19.63;10.90;;;;;;;26.24;54.01;101435.50;5043568;28;20409;-83
2022/08/23 08:55:10;;;;;;;19.08;11.43;;;;;;;26.06;52.84;101434.41;5043589;28;20139;-83
2022/08/23 08:57:39;;;;;;;19.45;11.73;;;;;;;26.61;49.58;101435.69;5044418;28;20033;-83
2022/08/23 09:00:25;;;;;;;17.38;10.45;;;;;;;26.81;49.01;101442.84;5042652;28;20037;-82
2022/08/23 09:02:50;;;;;;;16.02;10.75;;;;;;;27.24;48.01;101450.88;5042096;28;20042;-83
2022/08/23 09:05:20;;;;;;;18.20;12.07;;;;;;;27.48;48.12;101446.22;5040935;28;20044;-83
2022/08/23 09:08:05;;;;;;;18.02;12.15;;;;;;;27.58;47.67;101443.19;5043702;28;21393;-83
2022/08/23 09:10:48;;;;;;;19.33;11.68;;;;;;;27.75;46.54;101451.72;5043722;28;20043;-81
2022/08/23 09:13:29;;;;;;;16.20;9.27;;;;;;;27.63;47.35;101451.44;5028128;28;20032;-82
2022/08/23 09:16:00;;;;;;;15.15;8.90;;;;;;;27.38;46.92;101447.28;5058586;28;20121;-82
2022/08/23 09:18:30;;;;;;;17.92;8.68;;;;;;;27.79;45.30;101449.94;5042512;28;20452;-83
2022/08/23 09:20:57;;;;;;;18.60;9.68;;;;;;;27.60;46.02;101454.84;5043771;28;20063;-84
2022/08/23 09:23:30;;;;;;;15.20;7.72;;;;;;;27.69;46.19;101461.34;5042127;28;20040;-83
2022/08/23 09:26:01;;;;;;;11.90;8.43;;;;;;;28.10;46.26;101452.03;5042602;28;20116;-84
2022/08/23 09:28:33;;;;;;;17.20;8.32;;;;;;;28.21;46.95;101460.13;5043565;28;20044;-83
2022/08/23 09:30:58;;;;;;;16.45;8.25;;;;;;;28.51;45.48;101447.38;5043007;28;20476;-84
2022/08/23 09:33:35;;;;;;;11.57;6.47;;;;;;;28.56;44.94;101444.44;5043266;28;20106;-83
2022/08/23 09:36:24;;;;;;;12.75;6.57;;;;;;;28.93;45.58;101453.50;5043216;28;20037;-83
2022/08/23 09:39:24;;;;;;;16.65;6.68;;;;;;;28.92;43.36;101451.03;5042769;28;20029;-83
2022/08/23 09:41:50;;;;;;;14.20;7.13;;;;;;;28.53;43.69;101441.47;5029272;28;20051;-82
2022/08/23 09:44:35;;;;;;;13.05;7.68;;;;;;;28.97;45.02;101454.50;5042123;28;20285;-83
2022/08/23 09:47:19;;;;;;;11.27;7.07;;;;;;;28.99;45.55;101453.34;5042499;28;20054;-82
2022/08/23 09:49:47;;;;;;;12.80;8.52;;;;;;;28.65;43.88;101455.66;5042353;28;20028;-83
2022/08/23 09:52:21;;;;;;;10.10;5.57;;;;;;;29.02;44.28;101461.06;5041921;28;20068;-85
2022/08/23 09:54:59;;;;;;;9.60;3.85;;;;;;;29.01;43.82;101454.66;5042665;28;20102;-83
2022/08/23 09:57:29;;;;;;;6.10;2.90;;;;;;;28.99;42.99;101445.78;5042227;28;20541;-86
2022/08/23 10:00:00;;;;;;;8.65;3.22;;;;;;;28.95;42.32;101456.78;5041667;28;20040;-82
2022/08/23 10:02:32;;;;;;;10.35;3.97;;;;;;;29.05;42.01;101444.50;5042105;28;20319;-84
2022/08/23 10:04:59;;;;;;;6.82;2.58;;;;;;;28.80;41.47;101443.25;5042337;28;20029;-83
2022/08/23 10:07:52;;;;;;;8.18;3.00;;;;;;;29.24;43.61;101441.44;5042468;28;20028;-83
2022/08/23 10:10:37;;;;;;;10.33;3.63;;;;;;;29.26;41.85;101436.38;5040904;28;20091;-84
2022/08/23 10:13:04;;;;;;;9.70;4.00;;;;;;;29.42;41.33;101447.09;5042574;28;20148;-87
2022/08/23 10:15:52;;;;;;;9.82;3.53;;;;;;;29.74;41.77;101442.19;5041788;28;20119;-87
2022/08/23 10:18:31;;;;;;;14.02;3.50;;;;;;;29.41;42.56;101443.47;5042484;28;20041;-82
2022/08/23 10:21:05;;;;;;;10.63;3.90;;;;;;;29.36;41.38;101442.81;5042056;28;20124;-84
2022/08/23 10:24:03;;;;;;;9.80;4.10;;;;;;;29.22;43.62;101432.56;5040707;28;20068;-83
2022/08/23 10:26:31;;;;;;;10.38;4.28;;;;;;;29.02;44.49;101438.75;5041638;28;20268;-84
2022/08/23 10:32:10;;;;;;;10.73;3.28;;;;;;;29.23;41.96;101439.78;5042726;28;20569;-86
2022/08/23 10:35:13;;;;;;;21.92;4.05;;;;;;;29.34;42.61;101436.72;5041921;28;20052;-84
2022/08/23 10:37:42;;;;;;;11.25;3.50;;;;;;;29.00;41.22;101435.47;5040977;28;22063;-84
2022/08/23 10:40:28;;;;;;;14.40;4.25;;;;;;;28.80;42.95;101434.91;5043445;28;20044;-84
2022/08/23 10:43:14;;;;;;;7.05;3.58;;;;;;;28.72;42.30;101430.09;5041899;28;20439;-83
2022/08/23 10:45:44;;;;;;;11.05;3.50;;;;;;;28.86;41.28;101435.56;5041016;28;20039;-84
2022/08/23 10:48:28;;;;;;;9.15;3.15;;;;;;;28.92;42.23;101428.72;5041024;28;20048;-82
2022/08/23 10:50:58;;;;;;;;;;;;;;;29.67;43.33;101430.69;5042880;28;20037;-91
2022/08/23 10:53:32;;;;;;;9.98;3.45;;;;;;;29.25;43.41;101425.53;5041506;28;19920;-84
2022/08/23 10:56:01;;;;;;;9.30;3.60;;;;;;;29.04;40.97;101416.94;5040736;28;20105;-84
2022/08/23 10:58:33;;;;;;;10.80;3.78;;;;;;;29.04;41.42;101414.97;5040969;28;20480;-85
2022/08/23 11:00:59;;;;;;;11.90;3.00;;;;;;;29.35;40.57;101425.25;5040292;28;20323;-85
2022/08/23 11:03:42;;;;;;;6.47;2.80;;;;;;;29.62;38.70;101426.91;5041847;28;20040;-84
2022/08/23 11:06:26;;;;;;;8.35;2.60;;;;;;;29.79;40.15;101420.47;5042530;28;20037;-86
2022/08/23 11:09:13;;;;;;;7.22;2.88;;;;;;;30.07;39.89;101422.13;5041673;28;20048;-84
2022/08/23 11:12:16;;;;;;;4.93;2.67;;;;;;;30.66;37.94;101415.09;5040906;28;20055;-85
2022/08/23 11:15:01;;;;;;;6.93;3.00;;;;;;;30.55;39.57;101409.88;5039609;28;20047;-84
2022/08/23 11:17:41;;;;;;;7.50;2.60;;;;;;;30.06;37.74;101410.13;5041378;28;20044;-83
2022/08/23 11:20:11;;;;;;;8.23;3.30;;;;;;;29.75;38.50;101416.72;5039841;28;20037;-83
2022/08/23 11:22:55;;;;;;;10.48;3.17;;;;;;;30.34;40.04;101414.50;5041152;28;20040;-85
2022/08/23 11:25:58;;;;;;;9.18;2.88;;;;;;;30.29;39.82;101419.13;5041169;28;20064;-82
2022/08/23 11:28:26;;;;;;;8.77;3.33;;;;;;;29.53;40.39;101414.91;5055016;28;20040;-82
2022/08/23 11:31:36;;;;;;;5.95;3.30;;;;;;;29.92;41.39;101412.28;5039411;28;20051;-84
2022/08/23 11:34:10;;;;;;;9.68;3.10;;;;;;;29.96;39.08;101428.06;5040315;28;20076;-83
2022/08/23 11:36:36;;;;;;;6.88;3.00;;;;;;;30.38;39.08;101416.31;5040123;28;20366;-84
2022/08/23 11:39:11;;;;;;;6.97;2.83;;;;;;;30.75;39.46;101421.47;5040485;28;20566;-83
2022/08/23 11:41:54;;;;;;;9.35;2.60;;;;;;;30.95;38.84;101423.53;5041510;28;20037;-83
2022/08/23 11:44:40;;;;;;;;;;;;;;;31.04;38.03;101417.91;5040281;28;20436;-83